Aviation Digital Data Service (ADDS)

Output produced by METARs form (1355 UTC 30 August 2015)
found at http://www.aviationweather.gov/adds/metars/
 
KDUJ 301353Z AUTO VRB04KT 3SM HZ SCT004 OVC095 21/18 A3015 RMK AO2 SLP197 T02110183
KDUJ 301338Z AUTO 13003KT 2 1/2SM HZ SCT003 BKN100 OVC120 21/18 A3015 RMK AO2 T02060178
KDUJ 301325Z AUTO 11003KT 2SM BR FEW080 BKN110 20/18 A3015 RMK AO2 T02000178
KDUJ 301253Z AUTO 12004KT 1 1/2SM BR OVC100 19/17 A3015 RMK AO2 RAE03B40E49 SLP198 P0001 T01890172
KDUJ 301229Z AUTO 09004KT 1 1/4SM BR BKN100 BKN110 18/17 A3015 RMK AO2 RAE03 P0000 T01830167
KDUJ 301212Z AUTO 00000KT 2SM BR FEW090 BKN110 18/17 A3015 RMK AO2 RAE03 P0000 T01830167
KDUJ 301153Z AUTO 00000KT 1 1/4SM -RA BR OVC100 18/17 A3016 RMK AO2 RAB21 SLP202 P0003 60004 70004 T01830167 10200 20178 53017
KDUJ 301126Z AUTO 23004KT 1 1/4SM -RA BR FEW036 BKN100 18/16 A3016 RMK AO2 RAB21 P0001 T01780161
KDUJ 301115Z AUTO 00000KT 2 1/2SM BR FEW038 BKN110 18/16 A3015 RMK AO2 T01780161
KDUJ 301053Z AUTO 31003KT 6SM BR FEW028 SCT040 BKN055 18/16 A3015 RMK AO2 SLP197 T01830161
KDUJ 300953Z AUTO 00000KT 6SM HZ OVC095 18/15 A3011 RMK AO2 SLP183 T01830150
KDUJ 300853Z AUTO VRB03KT 5SM BR CLR 18/16 A3010 RMK AO2 RAE0754 SLP180 P0000 60001 T01830161 58004
KDUJ 300753Z AUTO 05003KT 6SM -RA BR SCT049 SCT080 BKN110 18/16 A3011 RMK AO2 RAB41 SLP181 P0001 T01830161
KDUJ 300653Z AUTO 00000KT 9SM OVC110 20/15 A3011 RMK AO2 SLP184 T02000150
KDUJ 300553Z AUTO 00000KT 8SM SCT050 BKN060 BKN080 19/14 A3012 RMK AO2 SLP184 T01890144 10233 20178 56007
KDUJ 300453Z AUTO 00000KT 7SM SCT065 18/15 A3012 RMK AO2 SLP188 T01780150 402720122
KDUJ 300353Z AUTO 00000KT 8SM FEW075 BKN100 19/15 A3013 RMK AO2 SLP190 T01940150
KDUJ 300253Z AUTO 14004KT 9SM FEW055 21/15 A3014 RMK AO2 SLP194 T02060150 50005
KDUJ 300153Z AUTO 00000KT 10SM FEW110 22/14 A3014 RMK AO2 SLP194 T02220139
KDUJ 300053Z AUTO 00000KT 10SM CLR 22/14 A3013 RMK AO2 SLP194 T02170139
KDUJ 292353Z AUTO 00000KT 10SM FEW090 22/14 A3012 RMK AO2 SLP193 T02170144 10272 20217 56007
KDUJ 292253Z AUTO 00000KT 10SM CLR 25/13 A3013 RMK AO2 SLP193 T02500133
KDUJ 292153Z AUTO VRB04KT 10SM CLR 27/12 A3013 RMK AO2 SLP193 T02670122
KDUJ 292053Z AUTO 22009KT 10SM CLR 27/12 A3015 RMK AO2 SLP198 T02670122 58013
KDUJ 291953Z AUTO 21007KT 10SM CLR 27/11 A3016 RMK AO2 SLP202 T02720111
KDUJ 291853Z AUTO 24004KT 10SM FEW050 26/11 A3018 RMK AO2 SLP210 T02560111
KDUJ 291753Z AUTO 10SM CLR 27/11 A3018 RMK AO2 SLP211 T02670106 10267 20150 58014
KDUJ 291653Z AUTO VRB03KT 10SM CLR 26/11 A3020 RMK AO2 SLP216 T02560106
KDUJ 291553Z AUTO 27007KT 10SM CLR 25/11 A3023 RMK AO2 SLP225 T02500111
KDUJ 291453Z AUTO 25006KT 10SM CLR 23/13 A3023 RMK AO2 SLP226 T02280128 53005
KDUJ 291353Z AUTO 24005KT 10SM CLR 21/13 A3022 RMK AO2 SLP224 T02060133
KDUJ 291253Z AUTO 00000KT 7SM CLR 18/13 A3022 RMK AO2 SLP225 T01830133
KDUJ 291153Z AUTO 07003KT 4SM HZ CLR 15/12 A3021 RMK AO2 SLP225 T01500117 10150 20122 53010
KDUJ 291053Z AUTO 09003KT 5SM BR CLR 13/11 A3020 RMK AO2 SLP219 T01280106
KDUJ 290953Z AUTO 08003KT 4SM BR CLR 13/11 A3018 RMK AO2 SLP211 T01280106
KDUJ 290853Z AUTO 09004KT 7SM CLR 14/11 A3018 RMK AO2 SLP209 T01390111 58008
KDUJ 290753Z AUTO 08003KT 9SM CLR 13/11 A3019 RMK AO2 SLP216 T01330111
KDUJ 290653Z AUTO 07004KT 10SM CLR 14/11 A3020 RMK AO2 SLP216 T01390111
KDUJ 290553Z AUTO 07003KT 10SM CLR 14/12 A3020 RMK AO2 SLP219 T01390117 10194 20139 58004
KDUJ 290453Z AUTO 12004KT 10SM CLR 14/12 A3021 RMK AO2 SLP222 T01440122 402560094
KDUJ 290353Z AUTO 12004KT 10SM CLR 16/12 A3022 RMK AO2 SLP224 T01560122
KDUJ 290253Z AUTO 11004KT 10SM CLR 16/13 A3022 RMK AO2 SLP225 T01560128 50010